createdAt,value
2022-09-12T00:00:01.790Z,3.10
2022-09-12T00:00:11.853Z,3.30
2022-09-12T00:00:21.897Z,3.20
2022-09-12T00:00:31.991Z,3.20
2022-09-12T00:00:42.041Z,3.40
2022-09-12T00:00:52.158Z,3.50
2022-09-12T00:01:02.268Z,3.70
2022-09-12T00:01:12.379Z,3.40
2022-09-12T00:01:22.509Z,3.20
2022-09-12T00:01:32.608Z,3.10
2022-09-12T00:01:42.690Z,3.30
2022-09-12T00:01:52.783Z,3.40
2022-09-12T00:02:02.921Z,3.40
2022-09-12T00:02:13.006Z,3.60
2022-09-12T00:02:23.113Z,3.70
2022-09-12T00:02:33.143Z,3.70
2022-09-12T00:02:43.201Z,3.40
2022-09-12T00:02:53.272Z,3.20
2022-09-12T00:03:03.311Z,3.40
2022-09-12T00:03:13.360Z,3.40
2022-09-12T00:03:23.390Z,3.60
2022-09-12T00:03:33.451Z,3.40
2022-09-12T00:03:43.551Z,3.60
2022-09-12T00:03:53.589Z,3.80
2022-09-12T00:04:03.638Z,3.80
2022-09-12T00:04:13.700Z,3.70
2022-09-12T00:04:23.752Z,3.50
2022-09-12T00:04:33.782Z,3.40
2022-09-12T00:04:43.830Z,3.30
2022-09-12T00:04:53.867Z,3.70
2022-09-12T00:05:03.920Z,3.70
2022-09-12T00:05:13.952Z,3.70
2022-09-12T00:05:24.001Z,3.50
2022-09-12T00:05:34.032Z,3.30
2022-09-12T00:05:44.080Z,3.20
2022-09-12T00:05:54.111Z,3.30
2022-09-12T00:06:04.160Z,3.60
2022-09-12T00:06:14.191Z,3.60
2022-09-12T00:06:24.231Z,3.50
2022-09-12T00:06:34.311Z,3.20
2022-09-12T00:06:44.361Z,3.20
2022-09-12T00:06:54.514Z,3.20
2022-09-12T00:07:04.559Z,3.30
2022-09-12T00:07:14.610Z,3.50
2022-09-12T00:07:24.659Z,3.70
2022-09-12T00:07:34.710Z,3.60
2022-09-12T00:07:44.771Z,3.40
2022-09-12T00:07:54.822Z,3.10
2022-09-12T00:08:04.871Z,3.30
2022-09-12T00:08:14.911Z,3.70
2022-09-12T00:08:24.963Z,3.80
2022-09-12T00:08:35.062Z,3.80
2022-09-12T00:08:45.193Z,3.40
2022-09-12T00:08:55.086Z,3.40
2022-09-12T00:09:05.190Z,3.50
2022-09-12T00:09:15.250Z,3.60
2022-09-12T00:09:25.293Z,3.70
2022-09-12T00:09:35.350Z,3.60
2022-09-12T00:09:45.462Z,3.90
2022-09-12T00:09:55.511Z,3.70
2022-09-12T00:10:05.558Z,3.70
2022-09-12T00:10:15.601Z,3.30
2022-09-12T00:10:25.650Z,3.40
2022-09-12T00:10:35.702Z,3.60
2022-09-12T00:10:45.771Z,3.80
2022-09-12T00:10:55.820Z,3.50
2022-09-12T00:11:05.932Z,3.20
2022-09-12T00:11:15.971Z,3.40
2022-09-12T00:11:26.046Z,3.70
2022-09-12T00:11:36.061Z,3.90
2022-09-12T00:11:46.127Z,3.60
2022-09-12T00:11:56.181Z,3.50
2022-09-12T00:12:06.301Z,3.30
2022-09-12T00:12:16.355Z,3.50
2022-09-12T00:12:26.421Z,3.30
2022-09-12T00:12:36.481Z,3.50
2022-09-12T00:12:46.521Z,3.30
2022-09-12T00:12:56.571Z,3.40
2022-09-12T00:13:06.711Z,3.30
2022-09-12T00:13:16.771Z,3.50
2022-09-12T00:13:26.833Z,3.60
2022-09-12T00:13:41.296Z,3.80
2022-09-12T00:13:47.081Z,3.50
2022-09-12T00:13:57.144Z,3.50
2022-09-12T00:14:07.189Z,3.30
2022-09-12T00:14:17.243Z,3.30
2022-09-12T00:14:27.252Z,3.20
2022-09-12T00:14:37.321Z,3.20
2022-09-12T00:14:47.370Z,3.30
2022-09-12T00:14:57.430Z,3.40
2022-09-12T00:15:07.484Z,3.10
2022-09-12T00:15:17.541Z,3.10
2022-09-12T00:15:27.570Z,3.10
2022-09-12T00:15:37.660Z,3.30
2022-09-12T00:15:47.711Z,3.40
2022-09-12T00:15:57.751Z,3.40
2022-09-12T00:16:07.895Z,3.40
2022-09-12T00:16:17.996Z,3.20
2022-09-12T00:16:28.061Z,3.30
2022-09-12T00:16:38.199Z,3.20
2022-09-12T00:16:48.341Z,3.40
2022-09-12T00:16:58.397Z,3.40
2022-09-12T00:17:08.431Z,3.50
2022-09-12T00:17:18.479Z,3.20
2022-09-12T00:17:28.510Z,3.00
2022-09-12T00:17:38.571Z,2.90
2022-09-12T00:17:48.621Z,3.10
2022-09-12T00:17:58.669Z,3.10
2022-09-12T00:18:08.738Z,3.00
2022-09-12T00:18:18.778Z,3.10
2022-09-12T00:18:28.831Z,3.40
2022-09-12T00:18:38.860Z,3.30
2022-09-12T00:18:48.901Z,3.10
2022-09-12T00:18:59.461Z,3.10
2022-09-12T00:19:08.991Z,3.40
2022-09-12T00:19:19.050Z,3.50
2022-09-12T00:19:29.083Z,3.00
2022-09-12T00:19:39.100Z,3.10
2022-09-12T00:19:49.140Z,3.20
2022-09-12T00:19:59.172Z,3.50
2022-09-12T00:20:09.210Z,3.40
2022-09-12T00:20:19.250Z,3.40
2022-09-12T00:20:29.298Z,3.40
2022-09-12T00:20:39.339Z,3.70
2022-09-12T00:20:49.380Z,3.60
2022-09-12T00:20:59.420Z,4.00
2022-09-12T00:21:09.460Z,4.00
2022-09-12T00:21:19.511Z,4.20
2022-09-12T00:21:29.561Z,3.80
2022-09-12T00:21:39.611Z,3.50
2022-09-12T00:21:49.652Z,3.50
2022-09-12T00:21:59.721Z,3.70
2022-09-12T00:22:09.751Z,3.90
2022-09-12T00:22:19.810Z,3.70
2022-09-12T00:22:29.871Z,3.40
2022-09-12T00:22:39.911Z,3.30
2022-09-12T00:22:49.950Z,3.20
2022-09-12T00:22:59.990Z,3.20
2022-09-12T00:23:10.040Z,3.20
2022-09-12T00:23:20.119Z,3.40
2022-09-12T00:23:30.160Z,3.30
2022-09-12T00:23:40.200Z,3.40
2022-09-12T00:23:50.251Z,3.50
2022-09-12T00:24:00.302Z,3.60
2022-09-12T00:24:10.351Z,3.50
2022-09-12T00:24:20.391Z,3.30
2022-09-12T00:24:30.521Z,3.50
2022-09-12T00:24:40.580Z,3.60
2022-09-12T00:24:50.621Z,3.40
2022-09-12T00:25:00.678Z,3.20
2022-09-12T00:25:10.710Z,3.10
2022-09-12T00:25:20.760Z,3.30
2022-09-12T00:25:30.800Z,3.40
2022-09-12T00:25:40.850Z,3.30
2022-09-12T00:25:50.898Z,3.10
2022-09-12T00:26:00.937Z,3.30
2022-09-12T00:26:10.979Z,3.50
2022-09-12T00:26:21.034Z,3.50
2022-09-12T00:26:31.073Z,3.40
2022-09-12T00:26:41.117Z,3.60
2022-09-12T00:26:51.141Z,3.50
2022-09-12T00:27:01.200Z,3.50
2022-09-12T00:27:11.301Z,3.00
2022-09-12T00:27:21.340Z,2.80
2022-09-12T00:27:31.381Z,3.00
2022-09-12T00:27:41.439Z,3.20
2022-09-12T00:27:51.488Z,3.20
2022-09-12T00:28:01.555Z,3.30
2022-09-12T00:28:11.679Z,3.10
2022-09-12T00:28:21.740Z,3.40
2022-09-12T00:28:32.760Z,3.40
2022-09-12T00:28:42.040Z,3.70
2022-09-12T00:28:51.978Z,3.70
2022-09-12T00:29:02.050Z,3.70
2022-09-12T00:29:12.127Z,3.40
2022-09-12T00:29:22.181Z,3.30
2022-09-12T00:29:32.229Z,3.20
2022-09-12T00:29:42.278Z,3.10
2022-09-12T00:29:52.331Z,3.40
2022-09-12T00:30:02.367Z,3.60
2022-09-12T00:30:12.460Z,3.80
2022-09-12T00:30:22.502Z,3.30
2022-09-12T00:30:32.540Z,3.10
2022-09-12T00:30:42.588Z,2.90
2022-09-12T00:30:52.621Z,3.00
2022-09-12T00:31:02.680Z,2.90
2022-09-12T00:31:12.832Z,2.80
2022-09-12T00:31:22.921Z,3.20
2022-09-12T00:31:33.031Z,3.30
2022-09-12T00:31:43.127Z,3.40
2022-09-12T00:31:53.256Z,3.30
2022-09-12T00:32:03.308Z,3.40
2022-09-12T00:32:13.350Z,3.60
2022-09-12T00:32:23.402Z,3.70
2022-09-12T00:32:33.452Z,3.50
2022-09-12T00:32:43.551Z,3.20
2022-09-12T00:32:53.601Z,3.10
2022-09-12T00:33:03.660Z,3.10
2022-09-12T00:33:13.740Z,3.40
2022-09-12T00:33:23.798Z,3.10
2022-09-12T00:33:33.859Z,3.30
2022-09-12T00:33:43.918Z,3.20
2022-09-12T00:33:53.960Z,3.20
2022-09-12T00:34:04.026Z,3.20
2022-09-12T00:34:14.130Z,3.10
2022-09-12T00:34:24.250Z,3.30
2022-09-12T00:34:34.290Z,3.20
2022-09-12T00:34:44.351Z,3.30
2022-09-12T00:34:54.399Z,3.10
2022-09-12T00:35:04.451Z,3.00
2022-09-12T00:35:14.541Z,2.90
2022-09-12T00:35:24.620Z,3.00
2022-09-12T00:35:34.678Z,3.00
2022-09-12T00:35:44.721Z,3.10
2022-09-12T00:35:54.780Z,3.20
2022-09-12T00:36:04.820Z,3.30
2022-09-12T00:36:14.927Z,3.30
2022-09-12T00:36:24.970Z,3.30
2022-09-12T00:36:35.009Z,3.20
2022-09-12T00:36:45.060Z,3.40
2022-09-12T00:36:55.111Z,3.30
2022-09-12T00:37:05.169Z,3.40
2022-09-12T00:37:15.258Z,3.40
2022-09-12T00:37:25.310Z,3.30
2022-09-12T00:37:35.381Z,3.60
2022-09-12T00:37:45.430Z,3.40
2022-09-12T00:37:55.491Z,3.50
2022-09-12T00:38:05.550Z,3.40
2022-09-12T00:38:15.633Z,3.50
2022-09-12T00:38:25.700Z,3.40
2022-09-12T00:38:35.750Z,3.70
2022-09-12T00:38:45.943Z,3.60
2022-09-12T00:38:55.830Z,3.70
2022-09-12T00:39:05.890Z,3.30
2022-09-12T00:39:15.941Z,3.30
2022-09-12T00:39:25.981Z,3.20
2022-09-12T00:39:36.029Z,3.30
2022-09-12T00:39:46.100Z,3.20
2022-09-12T00:39:56.187Z,3.10
2022-09-12T00:40:06.250Z,3.10
2022-09-12T00:40:16.357Z,3.20
2022-09-12T00:40:26.377Z,3.40
2022-09-12T00:40:36.418Z,3.40
2022-09-12T00:40:46.445Z,3.20
2022-09-12T00:40:56.470Z,3.10
2022-09-12T00:41:06.511Z,3.00
2022-09-12T00:41:16.537Z,3.40
2022-09-12T00:41:26.560Z,3.40
2022-09-12T00:41:36.600Z,3.60
2022-09-12T00:41:46.629Z,3.50
2022-09-12T00:41:56.640Z,3.40
2022-09-12T00:42:06.678Z,3.40
2022-09-12T00:42:16.700Z,3.40
2022-09-12T00:42:26.730Z,3.20
2022-09-12T00:42:36.761Z,3.10
2022-09-12T00:42:46.779Z,3.20
2022-09-12T00:42:56.812Z,3.30
2022-09-12T00:43:06.839Z,3.30
2022-09-12T00:43:17.199Z,3.50
2022-09-12T00:43:26.880Z,3.60
2022-09-12T00:43:36.910Z,3.30
2022-09-12T00:43:46.960Z,3.40
2022-09-12T00:43:56.993Z,3.30
2022-09-12T00:44:07.019Z,3.40
2022-09-12T00:44:17.056Z,3.40
2022-09-12T00:44:27.101Z,3.50
2022-09-12T00:44:37.139Z,3.50
2022-09-12T00:44:47.160Z,3.30
2022-09-12T00:44:57.190Z,3.40
2022-09-12T00:45:07.218Z,3.30
2022-09-12T00:45:17.247Z,3.40
2022-09-12T00:45:27.347Z,3.50
2022-09-12T00:45:37.548Z,3.30
2022-09-12T00:45:47.483Z,2.90
2022-09-12T00:45:57.628Z,2.70
2022-09-12T00:46:07.692Z,3.10
2022-09-12T00:46:17.767Z,2.90
2022-09-12T00:46:27.819Z,2.80
2022-09-12T00:46:37.878Z,2.60
2022-09-12T00:46:47.912Z,2.70
2022-09-12T00:46:57.960Z,2.80
2022-09-12T00:47:08.002Z,3.10
2022-09-12T00:47:18.062Z,3.20
2022-09-12T00:47:28.111Z,3.40
2022-09-12T00:47:38.168Z,3.30
2022-09-12T00:47:48.239Z,3.10
2022-09-12T00:47:58.287Z,2.70
2022-09-12T00:48:08.330Z,2.70
2022-09-12T00:48:18.370Z,2.80
2022-09-12T00:48:28.428Z,3.00
2022-09-12T00:48:38.480Z,2.90
2022-09-12T00:48:48.554Z,3.00
2022-09-12T00:48:58.597Z,3.30
2022-09-12T00:49:08.661Z,3.30
2022-09-12T00:49:18.681Z,3.30
2022-09-12T00:49:28.746Z,3.30
2022-09-12T00:49:38.786Z,3.60
2022-09-12T00:49:48.840Z,3.50
2022-09-12T00:49:59.889Z,3.40
2022-09-12T00:50:08.920Z,3.00
2022-09-12T00:50:18.979Z,3.20
2022-09-12T00:50:29.029Z,3.20
2022-09-12T00:50:39.086Z,3.10
2022-09-12T00:50:49.140Z,2.90
2022-09-12T00:50:59.198Z,2.90
2022-09-12T00:51:09.250Z,2.70
2022-09-12T00:51:19.309Z,3.10
2022-09-12T00:51:29.363Z,3.00
2022-09-12T00:51:39.417Z,3.30
2022-09-12T00:51:49.449Z,3.60
2022-09-12T00:51:59.509Z,3.60
2022-09-12T00:52:09.551Z,3.50
2022-09-12T00:52:19.590Z,3.30
2022-09-12T00:52:29.640Z,3.20
2022-09-12T00:52:39.699Z,3.10
2022-09-12T00:52:49.739Z,3.00
2022-09-12T00:52:59.791Z,3.20
2022-09-12T00:53:09.828Z,3.20
2022-09-12T00:53:19.879Z,3.30
2022-09-12T00:53:29.930Z,3.40
2022-09-12T00:53:39.980Z,3.60
2022-09-12T00:53:50.030Z,3.70
2022-09-12T00:54:00.107Z,3.60
2022-09-12T00:54:10.150Z,3.50
2022-09-12T00:54:20.208Z,3.30
2022-09-12T00:54:30.279Z,3.40
2022-09-12T00:54:40.331Z,3.20
2022-09-12T00:54:50.380Z,3.30
2022-09-12T00:55:00.427Z,3.30
2022-09-12T00:55:10.476Z,3.40
2022-09-12T00:55:20.532Z,3.30
2022-09-12T00:55:30.589Z,3.20
2022-09-12T00:55:40.650Z,3.00
2022-09-12T00:55:50.709Z,3.10
2022-09-12T00:56:00.761Z,3.20
2022-09-12T00:56:10.818Z,3.30
2022-09-12T00:56:20.872Z,3.30
2022-09-12T00:56:30.910Z,3.30
2022-09-12T00:56:40.973Z,3.30
2022-09-12T00:56:51.030Z,3.30
2022-09-12T00:57:01.070Z,3.10
2022-09-12T00:57:11.130Z,3.40
2022-09-12T00:57:21.160Z,3.40
2022-09-12T00:57:31.213Z,3.50
2022-09-12T00:57:41.299Z,3.50
2022-09-12T00:57:51.352Z,3.60
2022-09-12T00:58:01.408Z,3.50
2022-09-12T00:58:11.508Z,3.70
2022-09-12T00:58:21.552Z,3.70
2022-09-12T00:58:31.620Z,3.80
2022-09-12T00:58:41.723Z,3.60
2022-09-12T00:58:51.800Z,3.50
2022-09-12T00:59:01.849Z,3.30
2022-09-12T00:59:11.920Z,3.60
2022-09-12T00:59:21.968Z,3.60
2022-09-12T00:59:32.016Z,3.70
2022-09-12T00:59:42.060Z,3.40
2022-09-12T00:59:52.109Z,3.40
2022-09-12T01:00:02.160Z,3.60
2022-09-12T01:00:12.222Z,3.60
2022-09-12T01:00:22.269Z,3.70
2022-09-12T01:00:32.344Z,3.60
2022-09-12T01:00:42.471Z,3.80
2022-09-12T01:00:52.543Z,3.90
2022-09-12T01:01:02.640Z,3.80
2022-09-12T01:01:12.827Z,3.40
2022-09-12T01:01:22.823Z,3.10
2022-09-12T01:01:33.059Z,3.50
2022-09-12T01:01:42.901Z,3.50
2022-09-12T01:01:53.077Z,3.70
2022-09-12T01:02:03.159Z,3.60
2022-09-12T01:02:13.161Z,3.80
2022-09-12T01:02:23.248Z,3.80
2022-09-12T01:02:33.298Z,3.70
2022-09-12T01:02:43.339Z,4.00
2022-09-12T01:02:53.405Z,4.10
2022-09-12T01:03:03.419Z,4.20
2022-09-12T01:03:13.469Z,4.00
2022-09-12T01:03:23.528Z,3.60
2022-09-12T01:03:33.570Z,3.60
2022-09-12T01:03:43.622Z,3.50
2022-09-12T01:03:53.680Z,3.70
2022-09-12T01:04:03.730Z,3.90
2022-09-12T01:04:13.789Z,4.00
2022-09-12T01:04:23.837Z,4.10
2022-09-12T01:04:33.899Z,3.90
2022-09-12T01:04:43.949Z,4.00
2022-09-12T01:04:53.957Z,4.30
2022-09-12T01:05:03.999Z,4.40
2022-09-12T01:05:14.049Z,4.40
2022-09-12T01:05:24.151Z,4.20
2022-09-12T01:05:34.198Z,4.00
2022-09-12T01:05:44.244Z,3.80
2022-09-12T01:05:54.309Z,4.00
2022-09-12T01:06:04.359Z,4.10
2022-09-12T01:06:14.428Z,4.20
2022-09-12T01:06:24.488Z,3.80
2022-09-12T01:06:34.540Z,3.80
2022-09-12T01:06:44.598Z,3.80
2022-09-12T01:06:54.649Z,3.90
2022-09-12T01:07:04.697Z,3.80
2022-09-12T01:07:14.743Z,3.80
2022-09-12T01:07:24.791Z,3.70
2022-09-12T01:07:39.313Z,4.00
2022-09-12T01:07:45.820Z,3.80
2022-09-12T01:07:55.859Z,4.00
2022-09-12T01:08:05.950Z,4.00
2022-09-12T01:08:15.980Z,4.50
2022-09-12T01:08:26.041Z,4.30
2022-09-12T01:08:36.100Z,4.10
2022-09-12T01:08:46.206Z,3.80
2022-09-12T01:08:56.138Z,3.90
2022-09-12T01:09:06.187Z,4.10
2022-09-12T01:09:16.239Z,3.90
2022-09-12T01:09:26.289Z,4.20
2022-09-12T01:09:36.330Z,4.10
2022-09-12T01:09:46.391Z,4.20
2022-09-12T01:09:56.443Z,3.80
2022-09-12T01:10:06.506Z,3.90
2022-09-12T01:10:16.551Z,3.80
2022-09-12T01:10:26.608Z,4.00
2022-09-12T01:10:36.662Z,3.90
2022-09-12T01:10:46.718Z,4.00
2022-09-12T01:10:56.759Z,4.10
2022-09-12T01:11:06.816Z,4.20
2022-09-12T01:11:16.859Z,4.40
2022-09-12T01:11:26.926Z,4.20
2022-09-12T01:11:36.957Z,4.10
2022-09-12T01:11:47.012Z,3.80
2022-09-12T01:11:57.040Z,3.80
2022-09-12T01:12:07.089Z,4.00
2022-09-12T01:12:17.143Z,4.00
2022-09-12T01:12:27.217Z,3.90
2022-09-12T01:12:37.259Z,3.70
2022-09-12T01:12:47.328Z,3.60
2022-09-12T01:12:57.379Z,3.80
2022-09-12T01:13:07.428Z,4.10
2022-09-12T01:13:17.489Z,4.50
2022-09-12T01:13:27.529Z,4.60
2022-09-12T01:13:37.587Z,4.30
2022-09-12T01:13:47.629Z,4.10
2022-09-12T01:13:57.679Z,4.00
2022-09-12T01:14:07.739Z,4.40
2022-09-12T01:14:17.789Z,4.10
2022-09-12T01:14:27.829Z,4.20
2022-09-12T01:14:37.964Z,4.10
2022-09-12T01:14:47.978Z,4.80
2022-09-12T01:14:58.080Z,4.40
2022-09-12T01:15:08.129Z,4.30
2022-09-12T01:15:18.170Z,4.10
2022-09-12T01:15:28.217Z,4.30
2022-09-12T01:15:38.266Z,4.40
2022-09-12T01:15:48.310Z,4.50
2022-09-12T01:15:58.352Z,4.50
2022-09-12T01:16:08.465Z,4.60
2022-09-12T01:16:18.523Z,4.50
2022-09-12T01:16:28.643Z,4.60
2022-09-12T01:16:38.746Z,4.50
2022-09-12T01:16:48.803Z,4.70
2022-09-12T01:16:58.850Z,4.10
2022-09-12T01:17:08.898Z,4.00
2022-09-12T01:17:18.950Z,3.70
2022-09-12T01:18:06.230Z,4.20
2022-09-12T01:18:16.287Z,4.30
2022-09-12T01:18:26.331Z,4.20
2022-09-12T01:18:36.390Z,4.70
2022-09-12T01:18:46.612Z,4.50
2022-09-12T01:18:56.572Z,4.50
2022-09-12T01:19:06.630Z,4.10
2022-09-12T01:19:16.700Z,4.30
2022-09-12T01:19:26.752Z,4.20
2022-09-12T01:19:36.851Z,4.10
2022-09-12T01:19:46.936Z,4.10
2022-09-12T01:19:56.995Z,4.20
2022-09-12T01:20:07.065Z,4.20
2022-09-12T01:20:17.149Z,4.10
2022-09-12T01:20:27.209Z,4.00
2022-09-12T01:20:37.280Z,4.10
2022-09-12T01:20:47.366Z,4.50
2022-09-12T01:20:57.430Z,4.50
2022-09-12T01:21:07.509Z,4.60
2022-09-12T01:21:17.561Z,4.20
2022-09-12T01:21:27.629Z,4.20
2022-09-12T01:21:37.700Z,4.20
2022-09-12T01:21:47.762Z,4.30
2022-09-12T01:21:57.820Z,4.20
2022-09-12T01:22:07.890Z,4.20
2022-09-12T01:22:17.950Z,4.20
2022-09-12T01:22:28.014Z,4.40
2022-09-12T01:22:38.071Z,4.40
2022-09-12T01:22:48.138Z,4.20
2022-09-12T01:22:58.191Z,4.10
2022-09-12T01:23:08.257Z,4.40
2022-09-12T01:23:18.328Z,4.50
2022-09-12T01:23:28.397Z,4.50
2022-09-12T01:23:38.457Z,4.20
2022-09-12T01:23:48.543Z,4.20
2022-09-12T01:23:58.610Z,4.00
2022-09-12T01:24:08.693Z,4.10
2022-09-12T01:24:18.770Z,3.70
2022-09-12T01:24:28.834Z,3.80
2022-09-12T01:24:38.880Z,3.50
2022-09-12T01:24:48.931Z,3.50
2022-09-12T01:24:59.010Z,3.50
2022-09-12T01:25:09.067Z,3.60
2022-09-12T01:25:19.142Z,3.60
2022-09-12T01:25:29.201Z,3.50
2022-09-12T01:25:39.277Z,3.80
2022-09-12T01:25:49.351Z,4.00
2022-09-12T01:25:59.411Z,4.00
2022-09-12T01:26:09.478Z,3.80
2022-09-12T01:26:19.640Z,3.70
2022-09-12T01:26:29.727Z,4.00
2022-09-12T01:26:39.787Z,4.10
2022-09-12T01:26:49.859Z,3.90
2022-09-12T01:27:00.019Z,3.70
2022-09-12T01:27:10.078Z,3.70
2022-09-12T01:27:20.159Z,4.00
2022-09-12T01:27:30.229Z,3.80
2022-09-12T01:27:40.290Z,3.70
2022-09-12T01:27:50.360Z,3.80
2022-09-12T01:28:00.419Z,3.80
2022-09-12T01:28:10.490Z,4.00
2022-09-12T01:28:20.549Z,3.70
2022-09-12T01:28:30.630Z,4.20
2022-09-12T01:28:40.691Z,4.20
2022-09-12T01:28:50.770Z,4.00
2022-09-12T01:29:00.850Z,4.00
2022-09-12T01:29:10.924Z,3.90
2022-09-12T01:29:20.999Z,4.10
2022-09-12T01:29:31.047Z,4.00
2022-09-12T01:29:41.109Z,4.10
2022-09-12T01:29:51.170Z,4.00
2022-09-12T01:30:01.229Z,3.80
2022-09-12T01:30:12.239Z,3.60
2022-09-12T01:30:21.587Z,3.50
2022-09-12T01:30:31.648Z,3.70
2022-09-12T01:30:41.729Z,3.90
2022-09-12T01:30:51.799Z,4.40
2022-09-12T01:31:01.868Z,4.40
2022-09-12T01:31:11.921Z,4.30
2022-09-12T01:31:21.982Z,3.90
2022-09-12T01:31:32.029Z,3.90
2022-09-12T01:31:42.102Z,3.90
2022-09-12T01:31:52.183Z,4.00
2022-09-12T01:32:02.302Z,4.10
2022-09-12T01:32:12.402Z,4.20
2022-09-12T01:32:22.492Z,3.80
2022-09-12T01:32:32.555Z,3.90
2022-09-12T01:32:42.648Z,4.00
2022-09-12T01:32:52.709Z,4.00
2022-09-12T01:33:02.759Z,3.70
2022-09-12T01:33:12.839Z,3.60
2022-09-12T01:33:22.899Z,3.60
2022-09-12T01:33:32.959Z,3.50
2022-09-12T01:33:43.088Z,3.40
2022-09-12T01:33:53.147Z,3.40
2022-09-12T01:34:03.229Z,3.80
2022-09-12T01:34:13.289Z,4.10
2022-09-12T01:34:23.379Z,4.50
2022-09-12T01:34:33.510Z,4.60
2022-09-12T01:34:43.590Z,4.40
2022-09-12T01:34:53.647Z,4.30
2022-09-12T01:35:03.699Z,3.90
2022-09-12T01:35:13.779Z,3.90
2022-09-12T01:35:23.859Z,3.90
2022-09-12T01:35:33.921Z,4.20
2022-09-12T01:35:43.998Z,4.30
2022-09-12T01:35:54.049Z,4.40
2022-09-12T01:36:04.128Z,4.40
2022-09-12T01:36:14.199Z,4.40
2022-09-12T01:36:24.260Z,4.10
2022-09-12T01:36:34.329Z,4.00
2022-09-12T01:36:44.399Z,3.90
2022-09-12T01:36:54.468Z,3.80
2022-09-12T01:37:04.539Z,3.90
2022-09-12T01:37:14.618Z,3.90
2022-09-12T01:37:24.740Z,4.20
2022-09-12T01:37:34.806Z,4.10
2022-09-12T01:37:44.872Z,4.10
2022-09-12T01:37:54.941Z,4.00
2022-09-12T01:38:04.999Z,4.20
2022-09-12T01:38:15.069Z,4.20
2022-09-12T01:38:25.131Z,4.30
2022-09-12T01:38:35.336Z,4.30
2022-09-12T01:38:45.324Z,4.10
2022-09-12T01:38:55.308Z,4.00
2022-09-12T01:39:05.391Z,3.80
2022-09-12T01:39:15.460Z,3.90
2022-09-12T01:39:25.562Z,3.60
2022-09-12T01:39:35.658Z,3.70
2022-09-12T01:39:45.769Z,4.10
2022-09-12T01:39:55.871Z,4.30
2022-09-12T01:40:05.976Z,4.30
2022-09-12T01:40:16.103Z,4.00
2022-09-12T01:40:26.159Z,4.20
2022-09-12T01:40:36.227Z,4.10
2022-09-12T01:40:46.299Z,4.10
2022-09-12T01:40:56.380Z,4.00
2022-09-12T01:41:06.389Z,4.10
2022-09-12T01:41:16.471Z,4.00
2022-09-12T01:41:26.529Z,3.80
2022-09-12T01:41:36.607Z,3.90
2022-09-12T01:41:46.690Z,3.90
2022-09-12T01:41:56.779Z,3.90
2022-09-12T01:42:06.861Z,3.90
2022-09-12T01:42:16.949Z,4.20
2022-09-12T01:42:27.019Z,4.50
2022-09-12T01:42:37.109Z,4.40
2022-09-12T01:42:47.179Z,4.20
2022-09-12T01:42:57.259Z,3.90
2022-09-12T01:43:07.339Z,4.00
2022-09-12T01:43:17.419Z,4.20
2022-09-12T01:43:27.477Z,4.30
2022-09-12T01:43:37.548Z,4.40
2022-09-12T01:43:47.600Z,4.20
2022-09-12T01:43:57.679Z,4.30
2022-09-12T01:44:07.759Z,4.30
2022-09-12T01:44:17.819Z,4.30
2022-09-12T01:44:27.929Z,4.10
2022-09-12T01:44:38.027Z,4.10
2022-09-12T01:44:48.097Z,3.90
2022-09-12T01:44:58.168Z,3.80
2022-09-12T01:45:08.239Z,3.70
2022-09-12T01:45:18.301Z,4.10
2022-09-12T01:45:28.418Z,4.10
2022-09-12T01:45:38.526Z,4.50
2022-09-12T01:45:48.627Z,4.30
2022-09-12T01:45:58.685Z,4.70
2022-09-12T01:46:08.789Z,4.70
2022-09-12T01:46:18.849Z,4.70
2022-09-12T01:46:28.908Z,4.60
2022-09-12T01:46:38.979Z,4.30
2022-09-12T01:46:49.040Z,4.20
2022-09-12T01:46:59.209Z,4.20
2022-09-12T01:47:09.148Z,4.30
2022-09-12T01:47:19.209Z,4.30
2022-09-12T01:47:29.279Z,4.50
2022-09-12T01:47:39.339Z,4.30
2022-09-12T01:47:49.414Z,4.40
2022-09-12T01:47:59.468Z,4.40
2022-09-12T01:48:09.559Z,4.50
2022-09-12T01:48:19.619Z,4.30
2022-09-12T01:48:29.709Z,4.30
2022-09-12T01:48:39.779Z,4.20
2022-09-12T01:48:49.858Z,4.10
2022-09-12T01:48:59.947Z,3.80
2022-09-12T01:49:10.088Z,3.70
2022-09-12T01:49:20.228Z,3.80
2022-09-12T01:49:30.299Z,4.00
2022-09-12T01:49:40.376Z,4.30
2022-09-12T01:49:50.439Z,4.40
2022-09-12T01:50:00.499Z,4.30
2022-09-12T01:50:10.581Z,4.00
2022-09-12T01:50:20.655Z,3.80
2022-09-12T01:50:30.730Z,3.90
2022-09-12T01:50:40.799Z,4.00
2022-09-12T01:50:50.870Z,4.20
2022-09-12T01:51:00.939Z,4.30
2022-09-12T01:51:11.010Z,4.20
2022-09-12T01:51:21.076Z,4.40
2022-09-12T01:51:31.140Z,4.40
2022-09-12T01:51:41.218Z,4.30
2022-09-12T01:51:51.297Z,4.10
2022-09-12T01:52:01.367Z,4.00
2022-09-12T01:52:11.439Z,4.20
2022-09-12T01:52:21.508Z,4.30
2022-09-12T01:52:31.580Z,4.40
2022-09-12T01:52:41.649Z,4.10
2022-09-12T01:52:51.708Z,3.90
2022-09-12T01:53:02.390Z,3.60
2022-09-12T01:53:11.930Z,3.70
2022-09-12T01:53:22.010Z,4.00
2022-09-12T01:53:32.099Z,4.30
2022-09-12T01:53:42.170Z,4.50
2022-09-12T01:53:52.229Z,4.20
2022-09-12T01:54:02.308Z,4.10
2022-09-12T01:54:12.382Z,4.10
2022-09-12T01:54:22.458Z,3.80
2022-09-12T01:54:32.529Z,4.20
2022-09-12T01:54:42.596Z,4.10
2022-09-12T01:54:52.670Z,4.20
2022-09-12T01:55:09.458Z,4.00
2022-09-12T01:55:15.608Z,4.10
2022-09-12T01:55:25.739Z,4.40
2022-09-12T01:55:35.809Z,4.30
2022-09-12T01:55:45.886Z,4.20
2022-09-12T01:55:55.969Z,4.10
2022-09-12T01:56:06.018Z,4.00
2022-09-12T01:56:16.068Z,4.10
2022-09-12T01:56:26.117Z,4.10
2022-09-12T01:56:36.179Z,4.70
2022-09-12T01:56:46.208Z,4.70
2022-09-12T01:56:56.264Z,4.80
2022-09-12T01:57:06.298Z,4.30
2022-09-12T01:57:16.357Z,4.00
2022-09-12T01:57:26.406Z,4.10
2022-09-12T01:57:36.440Z,4.10
2022-09-12T01:57:46.509Z,4.20
2022-09-12T01:57:56.549Z,4.10
2022-09-12T01:58:06.589Z,4.00
2022-09-12T01:58:16.639Z,4.10
2022-09-12T01:58:26.687Z,4.60
2022-09-12T01:58:36.737Z,4.50
2022-09-12T01:58:47.010Z,4.50
2022-09-12T01:58:56.939Z,4.10
2022-09-12T01:59:06.987Z,4.50
2022-09-12T01:59:17.037Z,4.80
2022-09-12T01:59:27.079Z,4.80
2022-09-12T01:59:37.119Z,5.00
2022-09-12T01:59:47.189Z,4.50
2022-09-12T01:59:57.239Z,4.50
2022-09-12T02:00:07.290Z,4.10
2022-09-12T02:00:17.347Z,4.60
2022-09-12T02:00:27.389Z,4.30
2022-09-12T02:00:37.428Z,4.50
2022-09-12T02:00:47.505Z,4.10
2022-09-12T02:00:57.586Z,4.30
2022-09-12T02:01:07.697Z,4.10
2022-09-12T02:01:17.797Z,4.20
2022-09-12T02:01:27.881Z,4.60
2022-09-12T02:01:37.898Z,4.60
2022-09-12T02:01:47.988Z,4.20
2022-09-12T02:01:58.108Z,4.20
2022-09-12T02:02:08.165Z,4.70
2022-09-12T02:02:18.214Z,4.80
2022-09-12T02:02:28.332Z,4.50
2022-09-12T02:02:38.369Z,4.20
2022-09-12T02:02:48.493Z,4.30
2022-09-12T02:02:58.529Z,4.60
2022-09-12T02:03:08.576Z,4.60
2022-09-12T02:03:18.618Z,4.50
2022-09-12T02:03:28.668Z,4.40
2022-09-12T02:03:38.719Z,4.10
2022-09-12T02:03:48.758Z,4.10
2022-09-12T02:03:59.788Z,3.80
2022-09-12T02:04:09.798Z,4.30
2022-09-12T02:04:19.145Z,4.50
2022-09-12T02:04:33.525Z,4.70
2022-09-12T02:04:40.138Z,4.50
2022-09-12T02:04:50.168Z,4.40
2022-09-12T02:05:00.219Z,4.50
2022-09-12T02:05:10.268Z,4.60
2022-09-12T02:05:20.326Z,4.80
2022-09-12T02:05:30.388Z,4.90
2022-09-12T02:05:40.435Z,4.90
2022-09-12T02:05:50.498Z,5.00
2022-09-12T02:06:00.538Z,4.70
2022-09-12T02:06:10.578Z,4.90
2022-09-12T02:06:20.618Z,4.60
2022-09-12T02:06:30.699Z,4.40
2022-09-12T02:06:40.767Z,4.20
2022-09-12T02:06:50.817Z,4.10
2022-09-12T02:07:00.869Z,4.50
2022-09-12T02:07:10.898Z,4.60
2022-09-12T02:07:20.936Z,4.50
2022-09-12T02:07:30.978Z,4.60
2022-09-12T02:07:41.030Z,4.70
2022-09-12T02:07:51.068Z,4.60
2022-09-12T02:08:01.136Z,4.40
2022-09-12T02:08:11.189Z,4.40
2022-09-12T02:08:21.228Z,4.60
2022-09-12T02:08:31.308Z,4.60
2022-09-12T02:08:41.392Z,4.50
2022-09-12T02:08:51.531Z,4.50
2022-09-12T02:09:01.585Z,4.60
2022-09-12T02:09:11.639Z,4.50
2022-09-12T02:09:21.720Z,4.60
2022-09-12T02:09:31.789Z,4.80
2022-09-12T02:09:41.858Z,5.30
2022-09-12T02:09:51.947Z,5.10
2022-09-12T02:10:02.020Z,4.80
2022-09-12T02:10:12.080Z,4.50
2022-09-12T02:10:22.145Z,4.60
2022-09-12T02:10:32.792Z,4.90
2022-09-12T02:10:42.247Z,4.90
2022-09-12T02:10:52.330Z,4.90
2022-09-12T02:11:02.398Z,4.60
2022-09-12T02:11:12.457Z,4.70
2022-09-12T02:11:22.540Z,4.60
2022-09-12T02:11:32.598Z,4.80
2022-09-12T02:11:42.668Z,5.00
2022-09-12T02:11:52.758Z,5.30
2022-09-12T02:12:02.818Z,5.40
2022-09-12T02:12:12.888Z,4.90
2022-09-12T02:12:22.967Z,4.40
2022-09-12T02:12:33.030Z,4.50
2022-09-12T02:12:43.138Z,5.00
2022-09-12T02:12:53.207Z,5.30
2022-09-12T02:13:03.285Z,5.00
2022-09-12T02:13:13.760Z,4.80
2022-09-12T02:13:23.476Z,4.80
2022-09-12T02:13:33.557Z,4.90
2022-09-12T02:13:43.638Z,5.00
2022-09-12T02:13:53.710Z,5.10
2022-09-12T02:14:03.780Z,5.30
2022-09-12T02:14:13.848Z,5.10
2022-09-12T02:14:24.026Z,5.00
2022-09-12T02:14:33.985Z,4.70